sensor_id;sensor_type;location;lat;lon;timestamp;P1;durP1;ratioP1;P2;durP2;ratioP2
74160;SDS011;62512;-46.434;168.382;2022-09-09T00:00:39;2.8;;;1.3;;
74160;SDS011;62512;-46.434;168.382;2022-09-09T00:02:36;2.5;;;1.2;;
74160;SDS011;62512;-46.434;168.382;2022-09-09T00:03:51;2.5;;;1.0;;
74160;SDS011;62512;-46.434;168.382;2022-09-09T00:04:38;3.1;;;1.3;;
74160;SDS011;62512;-46.434;168.382;2022-09-09T00:06:44;3.6;;;1.5;;
74160;SDS011;62512;-46.434;168.382;2022-09-09T00:07:47;3.2;;;1.3;;
74160;SDS011;62512;-46.434;168.382;2022-09-09T00:08:45;1.8;;;1.3;;
74160;SDS011;62512;-46.434;168.382;2022-09-09T00:10:39;3.6;;;1.7;;
74160;SDS011;62512;-46.434;168.382;2022-09-09T00:13:42;1.9;;;1.3;;
74160;SDS011;62512;-46.434;168.382;2022-09-09T00:15:41;3.9;;;1.3;;
74160;SDS011;62512;-46.434;168.382;2022-09-09T00:17:40;3.3;;;1.5;;
74160;SDS011;62512;-46.434;168.382;2022-09-09T00:18:48;2.7;;;1.2;;
74160;SDS011;62512;-46.434;168.382;2022-09-09T00:21:38;3.1;;;1.3;;
74160;SDS011;62512;-46.434;168.382;2022-09-09T00:22:42;3.3;;;1.3;;
74160;SDS011;62512;-46.434;168.382;2022-09-09T00:23:39;2.8;;;1.5;;
74160;SDS011;62512;-46.434;168.382;2022-09-09T00:24:42;2.1;;;1.2;;
74160;SDS011;62512;-46.434;168.382;2022-09-09T00:25:47;2.4;;;1.3;;
74160;SDS011;62512;-46.434;168.382;2022-09-09T00:26:42;3.0;;;1.4;;
74160;SDS011;62512;-46.434;168.382;2022-09-09T00:27:41;2.7;;;1.4;;
74160;SDS011;62512;-46.434;168.382;2022-09-09T00:28:45;2.8;;;1.6;;
74160;SDS011;62512;-46.434;168.382;2022-09-09T00:30:37;3.0;;;1.3;;
74160;SDS011;62512;-46.434;168.382;2022-09-09T00:31:36;3.5;;;1.5;;
74160;SDS011;62512;-46.434;168.382;2022-09-09T00:32:37;5.1;;;2.3;;
74160;SDS011;62512;-46.434;168.382;2022-09-09T00:33:36;2.1;;;1.2;;
74160;SDS011;62512;-46.434;168.382;2022-09-09T00:34:42;2.4;;;1.3;;
74160;SDS011;62512;-46.434;168.382;2022-09-09T00:35:40;2.3;;;1.2;;
74160;SDS011;62512;-46.434;168.382;2022-09-09T00:36:38;3.7;;;1.6;;
74160;SDS011;62512;-46.434;168.382;2022-09-09T00:37:37;2.1;;;1.2;;
74160;SDS011;62512;-46.434;168.382;2022-09-09T00:38:41;3.6;;;1.3;;
74160;SDS011;62512;-46.434;168.382;2022-09-09T00:39:41;3.1;;;1.4;;
74160;SDS011;62512;-46.434;168.382;2022-09-09T00:42:41;2.9;;;1.6;;
74160;SDS011;62512;-46.434;168.382;2022-09-09T00:43:39;2.8;;;1.4;;
74160;SDS011;62512;-46.434;168.382;2022-09-09T00:44:38;3.2;;;1.3;;
74160;SDS011;62512;-46.434;168.382;2022-09-09T00:45:52;2.2;;;1.0;;
74160;SDS011;62512;-46.434;168.382;2022-09-09T00:46:50;5.2;;;1.3;;
74160;SDS011;62512;-46.434;168.382;2022-09-09T00:49:48;2.9;;;1.3;;
74160;SDS011;62512;-46.434;168.382;2022-09-09T00:50:50;3.9;;;1.4;;
74160;SDS011;62512;-46.434;168.382;2022-09-09T00:53:51;1.6;;;1.0;;
74160;SDS011;62512;-46.434;168.382;2022-09-09T00:54:48;1.9;;;1.1;;
74160;SDS011;62512;-46.434;168.382;2022-09-09T00:55:45;3.2;;;1.3;;
74160;SDS011;62512;-46.434;168.382;2022-09-09T00:56:38;5.3;;;1.9;;
74160;SDS011;62512;-46.434;168.382;2022-09-09T00:57:37;3.1;;;1.7;;
74160;SDS011;62512;-46.434;168.382;2022-09-09T00:58:36;3.7;;;1.6;;
74160;SDS011;62512;-46.434;168.382;2022-09-09T00:59:47;3.4;;;1.2;;
74160;SDS011;62512;-46.434;168.382;2022-09-09T01:00:43;2.3;;;1.2;;
74160;SDS011;62512;-46.434;168.382;2022-09-09T01:01:36;3.2;;;1.3;;
74160;SDS011;62512;-46.434;168.382;2022-09-09T01:02:43;3.6;;;1.2;;
74160;SDS011;62512;-46.434;168.382;2022-09-09T01:03:39;2.8;;;1.4;;
74160;SDS011;62512;-46.434;168.382;2022-09-09T01:04:37;3.1;;;1.2;;
74160;SDS011;62512;-46.434;168.382;2022-09-09T01:05:44;2.8;;;1.3;;
74160;SDS011;62512;-46.434;168.382;2022-09-09T01:06:37;2.9;;;1.5;;
74160;SDS011;62512;-46.434;168.382;2022-09-09T01:07:36;2.0;;;1.2;;
74160;SDS011;62512;-46.434;168.382;2022-09-09T01:09:59;2.3;;;1.5;;
74160;SDS011;62512;-46.434;168.382;2022-09-09T01:10:50;2.3;;;1.1;;
74160;SDS011;62512;-46.434;168.382;2022-09-09T01:13:36;3.0;;;1.1;;
74160;SDS011;62512;-46.434;168.382;2022-09-09T01:14:44;2.1;;;1.3;;
74160;SDS011;62512;-46.434;168.382;2022-09-09T01:15:38;3.6;;;1.2;;
74160;SDS011;62512;-46.434;168.382;2022-09-09T01:17:46;2.0;;;1.3;;
74160;SDS011;62512;-46.434;168.382;2022-09-09T01:18:46;2.2;;;1.4;;
74160;SDS011;62512;-46.434;168.382;2022-09-09T01:20:44;3.0;;;1.3;;
74160;SDS011;62512;-46.434;168.382;2022-09-09T01:21:56;2.3;;;1.2;;
74160;SDS011;62512;-46.434;168.382;2022-09-09T01:24:40;3.0;;;1.2;;
74160;SDS011;62512;-46.434;168.382;2022-09-09T01:26:03;2.4;;;1.1;;
74160;SDS011;62512;-46.434;168.382;2022-09-09T01:26:41;2.6;;;1.0;;
74160;SDS011;62512;-46.434;168.382;2022-09-09T01:27:37;2.2;;;1.8;;
74160;SDS011;62512;-46.434;168.382;2022-09-09T01:28:37;1.8;;;0.9;;
74160;SDS011;62512;-46.434;168.382;2022-09-09T01:29:37;1.9;;;1.2;;
74160;SDS011;62512;-46.434;168.382;2022-09-09T01:30:39;2.7;;;1.0;;
74160;SDS011;62512;-46.434;168.382;2022-09-09T01:31:42;3.1;;;1.1;;
74160;SDS011;62512;-46.434;168.382;2022-09-09T01:32:41;1.5;;;1.1;;
74160;SDS011;62512;-46.434;168.382;2022-09-09T01:33:36;3.3;;;1.2;;
74160;SDS011;62512;-46.434;168.382;2022-09-09T01:34:38;2.2;;;1.2;;
74160;SDS011;62512;-46.434;168.382;2022-09-09T01:37:36;2.6;;;1.1;;
74160;SDS011;62512;-46.434;168.382;2022-09-09T01:38:37;2.9;;;1.2;;
74160;SDS011;62512;-46.434;168.382;2022-09-09T01:39:39;2.1;;;0.9;;
74160;SDS011;62512;-46.434;168.382;2022-09-09T01:40:37;1.8;;;1.1;;
74160;SDS011;62512;-46.434;168.382;2022-09-09T01:41:37;2.3;;;1.4;;
74160;SDS011;62512;-46.434;168.382;2022-09-09T01:42:36;2.7;;;1.2;;
74160;SDS011;62512;-46.434;168.382;2022-09-09T01:43:36;2.9;;;1.5;;
74160;SDS011;62512;-46.434;168.382;2022-09-09T01:44:37;4.3;;;1.6;;
74160;SDS011;62512;-46.434;168.382;2022-09-09T01:45:37;1.7;;;1.2;;
74160;SDS011;62512;-46.434;168.382;2022-09-09T01:46:36;1.7;;;0.9;;
74160;SDS011;62512;-46.434;168.382;2022-09-09T01:47:36;1.2;;;0.8;;
74160;SDS011;62512;-46.434;168.382;2022-09-09T01:48:36;1.3;;;0.9;;
74160;SDS011;62512;-46.434;168.382;2022-09-09T01:49:36;2.7;;;0.9;;
74160;SDS011;62512;-46.434;168.382;2022-09-09T01:50:36;1.4;;;0.7;;
74160;SDS011;62512;-46.434;168.382;2022-09-09T01:51:39;1.4;;;0.7;;
74160;SDS011;62512;-46.434;168.382;2022-09-09T01:52:36;2.0;;;0.7;;
74160;SDS011;62512;-46.434;168.382;2022-09-09T01:53:38;1.9;;;0.8;;
74160;SDS011;62512;-46.434;168.382;2022-09-09T01:54:36;1.6;;;0.8;;
74160;SDS011;62512;-46.434;168.382;2022-09-09T01:55:40;3.5;;;1.0;;
74160;SDS011;62512;-46.434;168.382;2022-09-09T02:00:41;0.8;;;0.7;;
74160;SDS011;62512;-46.434;168.382;2022-09-09T02:03:36;3.1;;;1.0;;
74160;SDS011;62512;-46.434;168.382;2022-09-09T02:04:40;1.0;;;0.6;;
74160;SDS011;62512;-46.434;168.382;2022-09-09T02:05:38;1.5;;;0.8;;
74160;SDS011;62512;-46.434;168.382;2022-09-09T02:06:38;2.0;;;0.8;;
74160;SDS011;62512;-46.434;168.382;2022-09-09T02:07:41;1.9;;;0.8;;
74160;SDS011;62512;-46.434;168.382;2022-09-09T02:09:36;3.9;;;0.9;;
74160;SDS011;62512;-46.434;168.382;2022-09-09T02:11:36;0.9;;;0.7;;
74160;SDS011;62512;-46.434;168.382;2022-09-09T02:12:40;1.3;;;0.8;;
74160;SDS011;62512;-46.434;168.382;2022-09-09T02:13:37;1.2;;;0.8;;
74160;SDS011;62512;-46.434;168.382;2022-09-09T02:14:40;1.5;;;0.7;;
74160;SDS011;62512;-46.434;168.382;2022-09-09T02:15:45;1.9;;;0.9;;
74160;SDS011;62512;-46.434;168.382;2022-09-09T02:18:57;2.0;;;0.9;;
74160;SDS011;62512;-46.434;168.382;2022-09-09T02:23:37;1.8;;;0.9;;
74160;SDS011;62512;-46.434;168.382;2022-09-09T02:24:37;1.2;;;0.6;;
74160;SDS011;62512;-46.434;168.382;2022-09-09T02:25:37;2.1;;;0.7;;
74160;SDS011;62512;-46.434;168.382;2022-09-09T02:26:40;2.0;;;0.7;;
74160;SDS011;62512;-46.434;168.382;2022-09-09T02:28:38;1.9;;;0.6;;
74160;SDS011;62512;-46.434;168.382;2022-09-09T02:29:40;1.6;;;0.6;;
74160;SDS011;62512;-46.434;168.382;2022-09-09T02:30:37;2.1;;;0.6;;
74160;SDS011;62512;-46.434;168.382;2022-09-09T02:31:37;1.8;;;0.7;;
74160;SDS011;62512;-46.434;168.382;2022-09-09T02:32:38;1.9;;;1.2;;
74160;SDS011;62512;-46.434;168.382;2022-09-09T02:33:41;1.2;;;0.5;;
74160;SDS011;62512;-46.434;168.382;2022-09-09T02:34:42;0.9;;;0.7;;
74160;SDS011;62512;-46.434;168.382;2022-09-09T02:35:38;2.5;;;0.9;;
74160;SDS011;62512;-46.434;168.382;2022-09-09T02:36:37;2.6;;;0.8;;
74160;SDS011;62512;-46.434;168.382;2022-09-09T02:37:39;3.4;;;0.8;;
74160;SDS011;62512;-46.434;168.382;2022-09-09T02:38:42;2.4;;;0.8;;
74160;SDS011;62512;-46.434;168.382;2022-09-09T02:39:36;2.1;;;0.7;;
74160;SDS011;62512;-46.434;168.382;2022-09-09T02:40:36;2.6;;;0.7;;
74160;SDS011;62512;-46.434;168.382;2022-09-09T02:41:39;2.3;;;0.8;;
74160;SDS011;62512;-46.434;168.382;2022-09-09T02:42:39;2.3;;;0.7;;
74160;SDS011;62512;-46.434;168.382;2022-09-09T02:43:36;2.5;;;0.6;;
74160;SDS011;62512;-46.434;168.382;2022-09-09T02:44:36;2.5;;;0.9;;
74160;SDS011;62512;-46.434;168.382;2022-09-09T02:45:47;2.1;;;0.7;;
74160;SDS011;62512;-46.434;168.382;2022-09-09T02:47:44;1.3;;;0.6;;
74160;SDS011;62512;-46.434;168.382;2022-09-09T02:50:41;2.0;;;0.7;;
74160;SDS011;62512;-46.434;168.382;2022-09-09T02:54:38;1.4;;;0.6;;
74160;SDS011;62512;-46.434;168.382;2022-09-09T02:57:37;1.6;;;0.7;;
74160;SDS011;62512;-46.434;168.382;2022-09-09T02:58:36;3.2;;;0.8;;
74160;SDS011;62512;-46.434;168.382;2022-09-09T02:59:37;2.5;;;0.8;;
74160;SDS011;62512;-46.434;168.382;2022-09-09T03:00:37;1.8;;;0.7;;
74160;SDS011;62512;-46.434;168.382;2022-09-09T03:01:36;2.7;;;0.9;;
74160;SDS011;62512;-46.434;168.382;2022-09-09T03:02:36;2.1;;;0.7;;
74160;SDS011;62512;-46.434;168.382;2022-09-09T03:03:36;2.0;;;0.6;;
74160;SDS011;62512;-46.434;168.382;2022-09-09T03:04:38;0.6;;;0.5;;
74160;SDS011;62512;-46.434;168.382;2022-09-09T03:05:36;2.3;;;0.8;;
74160;SDS011;62512;-46.434;168.382;2022-09-09T03:06:36;0.8;;;0.5;;
74160;SDS011;62512;-46.434;168.382;2022-09-09T03:07:36;2.8;;;0.5;;
74160;SDS011;62512;-46.434;168.382;2022-09-09T03:08:36;1.6;;;0.7;;
74160;SDS011;62512;-46.434;168.382;2022-09-09T03:09:36;1.1;;;0.6;;
74160;SDS011;62512;-46.434;168.382;2022-09-09T03:10:36;0.9;;;0.8;;
74160;SDS011;62512;-46.434;168.382;2022-09-09T03:11:36;1.9;;;0.8;;
74160;SDS011;62512;-46.434;168.382;2022-09-09T03:12:36;2.2;;;0.6;;
74160;SDS011;62512;-46.434;168.382;2022-09-09T03:13:36;1.7;;;0.8;;
74160;SDS011;62512;-46.434;168.382;2022-09-09T03:14:37;5.3;;;0.9;;
74160;SDS011;62512;-46.434;168.382;2022-09-09T03:15:36;1.0;;;0.5;;
74160;SDS011;62512;-46.434;168.382;2022-09-09T03:16:36;2.7;;;0.5;;
74160;SDS011;62512;-46.434;168.382;2022-09-09T03:17:36;2.1;;;0.5;;
74160;SDS011;62512;-46.434;168.382;2022-09-09T03:18:36;2.5;;;0.8;;
74160;SDS011;62512;-46.434;168.382;2022-09-09T03:19:36;0.6;;;0.5;;
74160;SDS011;62512;-46.434;168.382;2022-09-09T03:20:36;2.3;;;0.6;;
74160;SDS011;62512;-46.434;168.382;2022-09-09T03:21:36;1.5;;;0.5;;
74160;SDS011;62512;-46.434;168.382;2022-09-09T03:22:36;1.1;;;0.5;;
74160;SDS011;62512;-46.434;168.382;2022-09-09T03:23:36;1.7;;;0.5;;
74160;SDS011;62512;-46.434;168.382;2022-09-09T03:24:36;2.4;;;0.6;;
74160;SDS011;62512;-46.434;168.382;2022-09-09T03:25:36;1.7;;;0.7;;
74160;SDS011;62512;-46.434;168.382;2022-09-09T03:26:36;0.8;;;0.5;;
74160;SDS011;62512;-46.434;168.382;2022-09-09T03:27:36;1.6;;;0.6;;
74160;SDS011;62512;-46.434;168.382;2022-09-09T03:28:36;0.8;;;0.5;;
74160;SDS011;62512;-46.434;168.382;2022-09-09T03:29:36;3.0;;;1.1;;
74160;SDS011;62512;-46.434;168.382;2022-09-09T03:30:36;2.2;;;0.7;;
74160;SDS011;62512;-46.434;168.382;2022-09-09T03:31:36;2.8;;;0.8;;
74160;SDS011;62512;-46.434;168.382;2022-09-09T03:32:36;1.7;;;0.8;;
74160;SDS011;62512;-46.434;168.382;2022-09-09T03:33:37;1.1;;;0.6;;
74160;SDS011;62512;-46.434;168.382;2022-09-09T03:34:36;0.8;;;0.6;;
74160;SDS011;62512;-46.434;168.382;2022-09-09T03:35:36;1.5;;;0.7;;
74160;SDS011;62512;-46.434;168.382;2022-09-09T03:36:36;2.8;;;0.8;;
74160;SDS011;62512;-46.434;168.382;2022-09-09T03:38:36;1.5;;;0.7;;
74160;SDS011;62512;-46.434;168.382;2022-09-09T03:39:36;1.3;;;0.7;;
74160;SDS011;62512;-46.434;168.382;2022-09-09T03:40:36;1.8;;;0.5;;
74160;SDS011;62512;-46.434;168.382;2022-09-09T03:41:36;1.5;;;0.6;;
74160;SDS011;62512;-46.434;168.382;2022-09-09T03:42:37;2.6;;;0.7;;
74160;SDS011;62512;-46.434;168.382;2022-09-09T03:43:36;1.6;;;0.6;;
74160;SDS011;62512;-46.434;168.382;2022-09-09T03:44:37;1.6;;;0.7;;
74160;SDS011;62512;-46.434;168.382;2022-09-09T03:45:36;2.1;;;1.0;;
74160;SDS011;62512;-46.434;168.382;2022-09-09T03:46:36;1.0;;;0.5;;
74160;SDS011;62512;-46.434;168.382;2022-09-09T03:47:37;1.1;;;0.6;;
74160;SDS011;62512;-46.434;168.382;2022-09-09T03:48:36;1.8;;;0.8;;
74160;SDS011;62512;-46.434;168.382;2022-09-09T03:49:36;0.9;;;0.5;;
74160;SDS011;62512;-46.434;168.382;2022-09-09T03:51:36;2.1;;;0.7;;
74160;SDS011;62512;-46.434;168.382;2022-09-09T03:52:37;1.5;;;0.8;;
74160;SDS011;62512;-46.434;168.382;2022-09-09T03:53:36;1.7;;;0.6;;
74160;SDS011;62512;-46.434;168.382;2022-09-09T03:54:36;2.1;;;0.7;;
74160;SDS011;62512;-46.434;168.382;2022-09-09T03:55:36;0.9;;;0.5;;
74160;SDS011;62512;-46.434;168.382;2022-09-09T03:57:36;2.1;;;0.9;;
74160;SDS011;62512;-46.434;168.382;2022-09-09T04:00:36;1.2;;;0.7;;
74160;SDS011;62512;-46.434;168.382;2022-09-09T04:01:36;2.2;;;0.6;;
74160;SDS011;62512;-46.434;168.382;2022-09-09T04:02:36;1.9;;;0.6;;
74160;SDS011;62512;-46.434;168.382;2022-09-09T04:04:36;1.8;;;0.8;;
74160;SDS011;62512;-46.434;168.382;2022-09-09T04:05:36;1.2;;;0.5;;
74160;SDS011;62512;-46.434;168.382;2022-09-09T04:06:36;2.0;;;0.6;;
74160;SDS011;62512;-46.434;168.382;2022-09-09T04:08:36;1.3;;;0.6;;
74160;SDS011;62512;-46.434;168.382;2022-09-09T04:09:36;3.4;;;0.7;;
74160;SDS011;62512;-46.434;168.382;2022-09-09T04:10:36;2.0;;;0.6;;
74160;SDS011;62512;-46.434;168.382;2022-09-09T04:11:36;1.2;;;0.6;;
74160;SDS011;62512;-46.434;168.382;2022-09-09T04:12:36;2.1;;;0.7;;
74160;SDS011;62512;-46.434;168.382;2022-09-09T04:13:37;2.9;;;0.8;;
74160;SDS011;62512;-46.434;168.382;2022-09-09T04:14:36;1.3;;;0.6;;
74160;SDS011;62512;-46.434;168.382;2022-09-09T04:15:36;1.1;;;0.6;;
74160;SDS011;62512;-46.434;168.382;2022-09-09T04:16:36;1.1;;;0.5;;
74160;SDS011;62512;-46.434;168.382;2022-09-09T04:17:36;1.7;;;0.8;;
74160;SDS011;62512;-46.434;168.382;2022-09-09T04:18:36;1.6;;;0.8;;
74160;SDS011;62512;-46.434;168.382;2022-09-09T04:19:36;1.3;;;0.6;;
74160;SDS011;62512;-46.434;168.382;2022-09-09T04:20:36;1.9;;;0.6;;
74160;SDS011;62512;-46.434;168.382;2022-09-09T04:21:36;0.9;;;0.6;;
74160;SDS011;62512;-46.434;168.382;2022-09-09T04:22:36;2.2;;;0.6;;
74160;SDS011;62512;-46.434;168.382;2022-09-09T04:23:36;2.9;;;0.6;;
74160;SDS011;62512;-46.434;168.382;2022-09-09T04:26:36;2.8;;;1.1;;
74160;SDS011;62512;-46.434;168.382;2022-09-09T04:27:36;2.6;;;0.6;;
74160;SDS011;62512;-46.434;168.382;2022-09-09T04:28:37;1.2;;;0.6;;
74160;SDS011;62512;-46.434;168.382;2022-09-09T04:29:36;1.5;;;0.6;;
74160;SDS011;62512;-46.434;168.382;2022-09-09T04:30:36;2.6;;;0.9;;
74160;SDS011;62512;-46.434;168.382;2022-09-09T04:31:36;1.3;;;0.6;;
74160;SDS011;62512;-46.434;168.382;2022-09-09T04:32:36;1.8;;;0.9;;
74160;SDS011;62512;-46.434;168.382;2022-09-09T04:33:36;1.7;;;0.7;;
74160;SDS011;62512;-46.434;168.382;2022-09-09T04:34:36;1.8;;;0.7;;
74160;SDS011;62512;-46.434;168.382;2022-09-09T04:35:37;1.3;;;0.5;;
74160;SDS011;62512;-46.434;168.382;2022-09-09T04:37:36;1.8;;;0.7;;
74160;SDS011;62512;-46.434;168.382;2022-09-09T04:38:36;3.3;;;0.8;;
74160;SDS011;62512;-46.434;168.382;2022-09-09T04:39:36;2.0;;;0.9;;
74160;SDS011;62512;-46.434;168.382;2022-09-09T04:40:36;2.4;;;0.7;;
74160;SDS011;62512;-46.434;168.382;2022-09-09T04:41:36;2.7;;;1.1;;
74160;SDS011;62512;-46.434;168.382;2022-09-09T04:42:36;2.1;;;0.9;;
74160;SDS011;62512;-46.434;168.382;2022-09-09T04:43:36;1.6;;;0.7;;
74160;SDS011;62512;-46.434;168.382;2022-09-09T04:45:36;2.7;;;0.8;;
74160;SDS011;62512;-46.434;168.382;2022-09-09T04:46:36;1.3;;;0.7;;
74160;SDS011;62512;-46.434;168.382;2022-09-09T04:47:36;1.8;;;0.9;;
74160;SDS011;62512;-46.434;168.382;2022-09-09T04:48:36;2.3;;;0.8;;
74160;SDS011;62512;-46.434;168.382;2022-09-09T04:49:36;2.5;;;0.8;;
74160;SDS011;62512;-46.434;168.382;2022-09-09T04:50:36;2.7;;;0.7;;
74160;SDS011;62512;-46.434;168.382;2022-09-09T04:51:36;1.5;;;0.8;;
74160;SDS011;62512;-46.434;168.382;2022-09-09T04:54:36;1.6;;;0.6;;
74160;SDS011;62512;-46.434;168.382;2022-09-09T04:56:36;2.7;;;0.7;;
74160;SDS011;62512;-46.434;168.382;2022-09-09T04:57:36;1.1;;;0.7;;
74160;SDS011;62512;-46.434;168.382;2022-09-09T04:58:37;0.7;;;0.5;;
74160;SDS011;62512;-46.434;168.382;2022-09-09T04:59:36;3.8;;;0.9;;
74160;SDS011;62512;-46.434;168.382;2022-09-09T05:00:37;1.4;;;0.7;;
74160;SDS011;62512;-46.434;168.382;2022-09-09T05:01:36;0.9;;;0.4;;
74160;SDS011;62512;-46.434;168.382;2022-09-09T05:02:37;1.0;;;0.5;;
74160;SDS011;62512;-46.434;168.382;2022-09-09T05:03:36;1.8;;;0.5;;
74160;SDS011;62512;-46.434;168.382;2022-09-09T05:04:36;2.8;;;1.0;;
74160;SDS011;62512;-46.434;168.382;2022-09-09T05:05:36;2.8;;;1.1;;
74160;SDS011;62512;-46.434;168.382;2022-09-09T05:06:36;2.9;;;0.8;;
74160;SDS011;62512;-46.434;168.382;2022-09-09T05:07:36;1.9;;;0.8;;
74160;SDS011;62512;-46.434;168.382;2022-09-09T05:08:37;3.3;;;0.6;;
74160;SDS011;62512;-46.434;168.382;2022-09-09T05:09:36;2.4;;;0.9;;
74160;SDS011;62512;-46.434;168.382;2022-09-09T05:10:38;4.4;;;1.8;;
74160;SDS011;62512;-46.434;168.382;2022-09-09T05:11:36;2.2;;;0.7;;
74160;SDS011;62512;-46.434;168.382;2022-09-09T05:13:36;4.2;;;1.4;;
74160;SDS011;62512;-46.434;168.382;2022-09-09T05:14:36;2.5;;;1.0;;
74160;SDS011;62512;-46.434;168.382;2022-09-09T05:15:36;3.1;;;1.2;;
74160;SDS011;62512;-46.434;168.382;2022-09-09T05:16:36;1.6;;;0.7;;
74160;SDS011;62512;-46.434;168.382;2022-09-09T05:18:37;2.9;;;0.9;;
74160;SDS011;62512;-46.434;168.382;2022-09-09T05:19:36;1.6;;;0.8;;
74160;SDS011;62512;-46.434;168.382;2022-09-09T05:20:36;1.5;;;0.5;;
74160;SDS011;62512;-46.434;168.382;2022-09-09T05:21:36;1.5;;;0.5;;
74160;SDS011;62512;-46.434;168.382;2022-09-09T05:22:36;1.5;;;0.6;;
74160;SDS011;62512;-46.434;168.382;2022-09-09T05:23:36;1.5;;;0.7;;
74160;SDS011;62512;-46.434;168.382;2022-09-09T05:24:36;2.2;;;0.9;;
74160;SDS011;62512;-46.434;168.382;2022-09-09T05:25:36;1.4;;;0.6;;
74160;SDS011;62512;-46.434;168.382;2022-09-09T05:26:36;1.4;;;0.6;;
74160;SDS011;62512;-46.434;168.382;2022-09-09T05:27:36;2.5;;;0.8;;
74160;SDS011;62512;-46.434;168.382;2022-09-09T05:28:36;2.5;;;1.0;;
74160;SDS011;62512;-46.434;168.382;2022-09-09T05:29:36;2.3;;;0.7;;
74160;SDS011;62512;-46.434;168.382;2022-09-09T05:30:36;2.3;;;0.7;;
74160;SDS011;62512;-46.434;168.382;2022-09-09T05:31:36;2.3;;;0.7;;
74160;SDS011;62512;-46.434;168.382;2022-09-09T05:32:36;2.8;;;1.5;;
74160;SDS011;62512;-46.434;168.382;2022-09-09T05:33:36;3.3;;;1.5;;
74160;SDS011;62512;-46.434;168.382;2022-09-09T05:34:36;2.2;;;0.9;;
74160;SDS011;62512;-46.434;168.382;2022-09-09T05:35:36;2.9;;;0.9;;
74160;SDS011;62512;-46.434;168.382;2022-09-09T05:36:36;4.3;;;0.9;;
74160;SDS011;62512;-46.434;168.382;2022-09-09T05:37:36;1.5;;;0.9;;
74160;SDS011;62512;-46.434;168.382;2022-09-09T05:38:37;1.7;;;0.7;;
74160;SDS011;62512;-46.434;168.382;2022-09-09T05:39:36;2.1;;;0.8;;
74160;SDS011;62512;-46.434;168.382;2022-09-09T05:40:36;2.7;;;0.8;;
74160;SDS011;62512;-46.434;168.382;2022-09-09T05:41:36;3.2;;;1.2;;
74160;SDS011;62512;-46.434;168.382;2022-09-09T05:42:36;2.1;;;0.9;;
74160;SDS011;62512;-46.434;168.382;2022-09-09T05:43:37;3.3;;;1.0;;
74160;SDS011;62512;-46.434;168.382;2022-09-09T05:44:36;2.9;;;1.1;;
74160;SDS011;62512;-46.434;168.382;2022-09-09T05:45:36;2.8;;;0.9;;
74160;SDS011;62512;-46.434;168.382;2022-09-09T05:46:36;3.0;;;0.8;;
74160;SDS011;62512;-46.434;168.382;2022-09-09T05:47:37;2.3;;;1.2;;
74160;SDS011;62512;-46.434;168.382;2022-09-09T05:48:38;4.3;;;1.1;;
74160;SDS011;62512;-46.434;168.382;2022-09-09T05:49:36;4.5;;;1.4;;
74160;SDS011;62512;-46.434;168.382;2022-09-09T05:50:36;1.1;;;0.8;;
74160;SDS011;62512;-46.434;168.382;2022-09-09T05:51:36;1.7;;;0.7;;
74160;SDS011;62512;-46.434;168.382;2022-09-09T05:52:36;1.2;;;0.8;;
74160;SDS011;62512;-46.434;168.382;2022-09-09T05:53:36;3.9;;;1.0;;
74160;SDS011;62512;-46.434;168.382;2022-09-09T05:54:36;2.8;;;0.9;;
74160;SDS011;62512;-46.434;168.382;2022-09-09T05:55:36;3.9;;;1.0;;
74160;SDS011;62512;-46.434;168.382;2022-09-09T05:56:36;3.5;;;0.8;;
74160;SDS011;62512;-46.434;168.382;2022-09-09T05:57:36;2.7;;;0.9;;
74160;SDS011;62512;-46.434;168.382;2022-09-09T05:58:37;3.7;;;0.9;;
74160;SDS011;62512;-46.434;168.382;2022-09-09T05:59:36;4.1;;;1.2;;
74160;SDS011;62512;-46.434;168.382;2022-09-09T06:00:36;3.2;;;1.1;;
74160;SDS011;62512;-46.434;168.382;2022-09-09T06:01:37;3.7;;;1.0;;
74160;SDS011;62512;-46.434;168.382;2022-09-09T06:02:36;1.8;;;0.7;;
74160;SDS011;62512;-46.434;168.382;2022-09-09T06:03:38;2.0;;;0.9;;
74160;SDS011;62512;-46.434;168.382;2022-09-09T06:04:36;2.0;;;0.9;;
74160;SDS011;62512;-46.434;168.382;2022-09-09T06:05:36;5.2;;;1.3;;
74160;SDS011;62512;-46.434;168.382;2022-09-09T06:06:38;2.7;;;1.1;;
74160;SDS011;62512;-46.434;168.382;2022-09-09T06:07:36;2.5;;;1.3;;
74160;SDS011;62512;-46.434;168.382;2022-09-09T06:08:40;4.7;;;1.3;;
74160;SDS011;62512;-46.434;168.382;2022-09-09T06:09:36;4.4;;;1.7;;
74160;SDS011;62512;-46.434;168.382;2022-09-09T06:10:36;5.9;;;2.2;;
74160;SDS011;62512;-46.434;168.382;2022-09-09T06:11:38;6.1;;;2.2;;
74160;SDS011;62512;-46.434;168.382;2022-09-09T06:12:36;6.8;;;2.2;;
74160;SDS011;62512;-46.434;168.382;2022-09-09T06:13:37;4.3;;;2.1;;
74160;SDS011;62512;-46.434;168.382;2022-09-09T06:14:36;5.2;;;2.4;;
74160;SDS011;62512;-46.434;168.382;2022-09-09T06:15:36;5.3;;;2.4;;
74160;SDS011;62512;-46.434;168.382;2022-09-09T06:16:36;7.3;;;2.6;;
74160;SDS011;62512;-46.434;168.382;2022-09-09T06:17:37;8.1;;;2.6;;
74160;SDS011;62512;-46.434;168.382;2022-09-09T06:18:37;6.4;;;3.2;;
74160;SDS011;62512;-46.434;168.382;2022-09-09T06:19:36;7.3;;;2.8;;
74160;SDS011;62512;-46.434;168.382;2022-09-09T06:20:36;6.6;;;2.6;;
74160;SDS011;62512;-46.434;168.382;2022-09-09T06:21:37;6.1;;;2.4;;
74160;SDS011;62512;-46.434;168.382;2022-09-09T06:22:38;5.3;;;2.7;;
74160;SDS011;62512;-46.434;168.382;2022-09-09T06:23:39;6.1;;;2.8;;
74160;SDS011;62512;-46.434;168.382;2022-09-09T06:24:36;7.8;;;2.8;;
74160;SDS011;62512;-46.434;168.382;2022-09-09T06:25:36;6.1;;;2.6;;
74160;SDS011;62512;-46.434;168.382;2022-09-09T06:26:38;6.7;;;3.6;;
74160;SDS011;62512;-46.434;168.382;2022-09-09T06:27:36;7.6;;;3.7;;
74160;SDS011;62512;-46.434;168.382;2022-09-09T06:28:37;10.0;;;5.0;;
74160;SDS011;62512;-46.434;168.382;2022-09-09T06:29:36;8.6;;;3.7;;
74160;SDS011;62512;-46.434;168.382;2022-09-09T06:30:36;6.7;;;3.6;;
74160;SDS011;62512;-46.434;168.382;2022-09-09T06:31:37;10.1;;;5.0;;
74160;SDS011;62512;-46.434;168.382;2022-09-09T06:32:36;8.7;;;5.3;;
74160;SDS011;62512;-46.434;168.382;2022-09-09T06:33:38;9.9;;;4.7;;
74160;SDS011;62512;-46.434;168.382;2022-09-09T06:34:36;10.5;;;5.6;;
74160;SDS011;62512;-46.434;168.382;2022-09-09T06:35:36;9.2;;;6.1;;
74160;SDS011;62512;-46.434;168.382;2022-09-09T06:36:38;9.1;;;5.5;;
74160;SDS011;62512;-46.434;168.382;2022-09-09T06:37:36;7.8;;;5.2;;
74160;SDS011;62512;-46.434;168.382;2022-09-09T06:38:37;8.2;;;4.6;;
74160;SDS011;62512;-46.434;168.382;2022-09-09T06:39:36;6.2;;;4.2;;
74160;SDS011;62512;-46.434;168.382;2022-09-09T06:40:36;4.4;;;2.6;;
74160;SDS011;62512;-46.434;168.382;2022-09-09T06:41:37;5.3;;;3.0;;
74160;SDS011;62512;-46.434;168.382;2022-09-09T06:42:36;4.4;;;2.6;;
74160;SDS011;62512;-46.434;168.382;2022-09-09T06:43:37;5.3;;;2.6;;
74160;SDS011;62512;-46.434;168.382;2022-09-09T06:44:36;4.0;;;2.4;;
74160;SDS011;62512;-46.434;168.382;2022-09-09T06:45:36;4.7;;;2.3;;
74160;SDS011;62512;-46.434;168.382;2022-09-09T06:46:36;6.6;;;2.0;;
74160;SDS011;62512;-46.434;168.382;2022-09-09T06:47:36;6.0;;;1.9;;
74160;SDS011;62512;-46.434;168.382;2022-09-09T06:48:36;8.2;;;5.1;;
74160;SDS011;62512;-46.434;168.382;2022-09-09T06:49:36;22.3;;;14.5;;
74160;SDS011;62512;-46.434;168.382;2022-09-09T06:50:36;25.3;;;15.3;;
74160;SDS011;62512;-46.434;168.382;2022-09-09T06:51:37;34.4;;;18.1;;
74160;SDS011;62512;-46.434;168.382;2022-09-09T06:52:36;42.8;;;18.0;;
74160;SDS011;62512;-46.434;168.382;2022-09-09T06:53:37;47.1;;;20.3;;
74160;SDS011;62512;-46.434;168.382;2022-09-09T06:54:36;31.9;;;13.6;;
74160;SDS011;62512;-46.434;168.382;2022-09-09T06:55:36;22.9;;;11.1;;
74160;SDS011;62512;-46.434;168.382;2022-09-09T06:56:38;23.4;;;11.4;;
74160;SDS011;62512;-46.434;168.382;2022-09-09T06:57:36;18.6;;;8.4;;
74160;SDS011;62512;-46.434;168.382;2022-09-09T06:58:39;11.0;;;5.0;;
74160;SDS011;62512;-46.434;168.382;2022-09-09T06:59:36;10.9;;;4.5;;